RJSH(METAR)
08/15 04:00
METAR RJSH 141900Z 22011KT 9999 FEW020 SCT120 24/22 Q1002 RMK 1CU020
3AC120 A2962=
戻る
トップページへ戻る
IMOC Co,.Ltd.